Time;durP1;ratioP1;P1;durP2;ratioP2;P2;SDS_P1;SDS_P2;PMS_P1;PMS_P2;Temp;Humidity;BMP_temperature;BMP_pressure;BME280_temperature;BME280_humidity;BME280_pressure;Samples;Min_cycle;Max_cycle;Signal;HPM_P1;HPM_P2
2020/12/13 00:01:04;;;;;;;;;8.50;8.50;;;;;1.38;89.21;100403.34;3725658;37;20617;-60
2020/12/13 00:03:30;;;;;;;;;9.50;9.50;;;;;1.40;89.10;100407.59;3725749;38;20615;-59
2020/12/13 00:05:56;;;;;;;;;5.75;3.00;;;;;1.41;89.11;100411.09;3727908;37;20612;-59
2020/12/13 00:08:26;;;;;;;;;11.00;9.75;;;;;1.44;89.43;100422.34;3729658;38;20599;-59
2020/12/13 00:10:54;;;;;;;;;7.50;6.50;;;;;1.45;89.34;100407.19;3726488;37;20641;-59
2020/12/13 00:13:21;;;;;;;;;6.50;6.50;;;;;1.41;89.37;100401.28;3729374;38;20597;-59
2020/12/13 00:15:47;;;;;;;;;12.50;8.50;;;;;1.42;89.05;100413.63;3729273;37;20601;-59
2020/12/13 00:18:14;;;;;;;;;8.75;7.00;;;;;1.45;89.43;100416.03;3725487;37;20616;-59
2020/12/13 00:20:40;;;;;;;;;11.50;10.00;;;;;1.46;89.30;100414.22;3725484;38;20578;-58
2020/12/13 00:23:06;;;;;;;;;10.75;9.00;;;;;1.44;89.18;100417.03;3725703;37;18212;-60
2020/12/13 00:25:32;;;;;;;;;10.00;10.00;;;;;1.43;89.33;100412.66;3725594;38;20607;-58
2020/12/13 00:27:59;;;;;;;;;14.25;8.00;;;;;1.44;89.15;100417.03;3725761;37;20622;-58
2020/12/13 00:30:25;;;;;;;;;8.75;7.00;;;;;1.47;89.22;100413.25;3725566;38;20587;-59
2020/12/13 00:32:52;;;;;;;;;8.75;6.00;;;;;1.48;89.14;100418.44;3725700;38;20560;-58
2020/12/13 00:35:18;;;;;;;;;7.00;6.00;;;;;1.48;89.38;100413.13;3725271;38;20566;-58
2020/12/13 00:37:44;;;;;;;;;10.75;8.50;;;;;1.50;89.56;100413.00;3725568;38;20548;-57
2020/12/13 00:40:11;;;;;;;;;11.75;9.50;;;;;1.47;89.38;100415.91;3725626;38;20600;-59
2020/12/13 00:42:37;;;;;;;;;10.75;8.00;;;;;1.47;89.59;100411.44;3725603;38;20564;-59
2020/12/13 00:45:03;;;;;;;;;11.50;9.25;;;;;1.50;89.55;100421.00;3725614;37;20563;-57
2020/12/13 00:47:30;;;;;;;;;10.00;7.00;;;;;1.54;89.58;100412.59;3725625;37;20589;-58
2020/12/13 00:49:56;;;;;;;;;11.00;9.00;;;;;1.54;89.76;100412.59;3725545;37;20569;-57
2020/12/13 00:52:22;;;;;;;;;13.75;10.00;;;;;1.58;89.55;100411.34;3725737;37;20552;-57
2020/12/13 00:54:48;;;;;;;;;6.75;5.50;;;;;1.59;89.75;100412.19;3725593;37;20586;-58
2020/12/13 00:57:15;;;;;;;;;7.75;6.00;;;;;1.58;89.71;100411.34;3725644;38;20580;-58
2020/12/13 00:59:41;;;;;;;;;7.75;6.50;;;;;1.61;89.51;100418.25;3724930;37;20528;-58
2020/12/13 01:02:07;;;;;;;;;10.00;7.25;;;;;1.64;89.53;100417.97;3725071;37;20555;-58
2020/12/13 01:04:34;;;;;;;;;10.50;7.00;;;;;1.65;89.62;100415.19;3725298;38;20546;-58
2020/12/13 01:07:05;;;;;;;;;6.75;5.75;;;;;1.64;89.56;100417.97;3725610;37;20534;-58
2020/12/13 01:09:31;;;;;;;;;8.50;6.75;;;;;1.69;89.87;100417.59;3725598;37;20505;-58
2020/12/13 01:11:58;;;;;;;;;8.50;6.00;;;;;1.67;89.71;100412.38;3725617;37;20539;-58
2020/12/13 01:14:24;;;;;;;;;7.25;6.00;;;;;1.69;89.61;100417.59;3725598;38;20520;-57
2020/12/13 01:16:54;;;;;;;;;7.00;7.00;;;;;1.73;90.00;100421.69;3725593;37;20536;-59
2020/12/13 01:19:21;;;;;;;;;10.50;8.75;;;;;1.78;89.83;100412.31;3725582;37;20489;-59
2020/12/13 01:21:48;;;;;;;;;10.50;9.00;;;;;1.81;89.73;100416.56;3730567;37;20519;-58
2020/12/13 01:24:17;;;;;;;;;10.75;7.00;;;;;1.79;89.64;100407.84;3729536;38;20550;-58
2020/12/13 01:26:43;;;;;;;;;9.00;6.25;;;;;1.79;89.49;100414.00;3727420;37;20507;-60
2020/12/13 01:29:09;;;;;;;;;6.75;6.75;;;;;1.78;89.88;100411.47;3726797;37;20520;-59
2020/12/13 01:31:41;;;;;;;;;6.00;5.00;;;;;1.85;89.88;100416.16;3730505;37;20519;-59
2020/12/13 01:34:10;;;;;;;;;7.75;6.50;;;;;1.84;89.91;100413.63;3727280;38;20470;-58
2020/12/13 01:36:37;;;;;;;;;7.75;6.00;;;;;1.82;89.68;100412.91;3725297;37;20485;-57
2020/12/13 01:39:04;;;;;;;;;8.50;7.50;;;;;1.80;89.73;100409.53;3725549;37;20500;-57
2020/12/13 01:41:31;;;;;;;;;9.00;8.00;;;;;1.78;89.65;100409.66;3725682;38;20484;-58
2020/12/13 01:44:04;;;;;;;;;5.50;5.50;;;;;1.80;89.76;100409.53;3725499;38;20485;-57
2020/12/13 01:46:32;;;;;;;;;7.50;7.00;;;;;1.78;89.99;100415.00;3725303;38;20484;-57
2020/12/13 01:49:03;;;;;;;;;10.00;9.25;;;;;1.77;89.69;100418.62;3725499;38;20473;-57
2020/12/13 01:54:46;;;;;;;;;8.50;7.75;;;;;1.92;90.14;100411.16;3725577;37;20461;-58
2020/12/13 01:57:16;;;;;;;;;7.75;7.50;;;;;1.86;89.80;100420.53;3725424;38;20483;-57
2020/12/13 01:59:50;;;;;;;;;7.00;6.00;;;;;1.85;89.79;100426.00;3725481;38;20494;-57
2020/12/13 02:02:23;;;;;;;;;6.75;6.00;;;;;1.83;89.91;100411.94;3725645;37;20464;-58
2020/12/13 02:04:56;;;;;;;;;11.75;10.25;;;;;1.84;89.66;100413.63;3725623;38;20440;-58
2020/12/13 02:07:29;;;;;;;;;8.25;7.75;;;;;1.88;90.14;100420.41;3725398;38;20479;-58
2020/12/13 02:09:55;;;;;;;;;9.50;9.00;;;;;1.84;89.71;100418.97;3725434;38;20486;-58
2020/12/13 02:12:21;;;;;;;;;11.75;10.50;;;;;1.89;89.91;100424.75;3725667;38;20452;-58
2020/12/13 02:14:48;;;;;;;;;10.50;9.00;;;;;1.93;89.96;100423.50;3725615;37;20460;-58
2020/12/13 02:17:21;;;;;;;;;11.50;10.75;;;;;1.95;89.96;100424.22;3725441;38;20498;-58
2020/12/13 02:19:50;;;;;;;;;10.50;10.00;;;;;1.94;89.71;100419.87;3725680;38;20482;-57
2020/12/13 02:22:19;;;;;;;;;8.50;7.75;;;;;2.02;90.00;100424.56;3725778;38;20438;-58
2020/12/13 02:24:45;;;;;;;;;7.25;5.00;;;;;1.91;89.56;100422.81;3725710;37;20458;-57
2020/12/13 02:27:14;;;;;;;;;10.00;10.00;;;;;1.88;89.94;100421.25;3725762;37;20446;-58
2020/12/13 02:29:40;;;;;;;;;12.75;11.00;;;;;1.79;90.02;100403.34;3725405;38;20396;-58
2020/12/13 02:32:06;;;;;;;;;5.50;5.50;;;;;1.85;89.64;100423.31;3725620;37;20441;-58
2020/12/13 02:34:32;;;;;;;;;9.75;8.25;;;;;1.78;89.79;100420.31;3725541;37;20390;-58
2020/12/13 02:36:59;;;;;;;;;13.50;11.00;;;;;1.72;90.09;100407.50;3725836;37;20437;-58
2020/12/13 02:39:31;;;;;;;;;10.00;7.00;;;;;1.80;89.79;100417.53;3725572;38;20422;-58
2020/12/13 02:42:02;;;;;;;;;11.75;7.25;;;;;1.83;89.96;100412.78;3725588;38;20416;-59
2020/12/13 02:44:29;;;;;;;;;5.75;5.00;;;;;1.79;89.77;100405.16;3725610;37;20395;-58
2020/12/13 02:46:55;;;;;;;;;8.00;7.00;;;;;1.82;89.98;100412.91;3725717;38;20413;-59
2020/12/13 02:49:22;;;;;;;;;10.25;9.50;;;;;1.85;89.90;100421.50;3725414;37;20418;-59
2020/12/13 02:51:48;;;;;;;;;8.25;7.00;;;;;1.86;89.81;100419.69;3725727;37;20509;-58
2020/12/13 02:54:14;;;;;;;;;8.75;6.75;;;;;1.87;90.17;100418.69;3725594;38;20411;-58
2020/12/13 02:56:42;;;;;;;;;9.25;7.00;;;;;1.75;90.09;100420.59;3725935;37;20402;-59
2020/12/13 02:59:09;;;;;;;;;8.25;7.00;;;;;1.80;90.26;100425.53;3726574;37;20401;-59
2020/12/13 03:01:36;;;;;;;;;11.50;8.25;;;;;1.86;90.27;100425.00;3726515;38;20397;-58
2020/12/13 03:04:02;;;;;;;;;6.00;6.00;;;;;1.92;90.07;100425.34;3727085;37;20415;-59
2020/12/13 03:06:28;;;;;;;;;11.50;7.50;;;;;1.96;90.03;100424.09;3726948;37;20368;-58
2020/12/13 03:08:56;;;;;;;;;7.00;6.67;;;;;2.00;90.06;100422.00;3728401;37;20394;-59
2020/12/13 03:11:22;;;;;;;;;6.50;5.00;;;;;2.02;90.27;100428.06;3727418;38;20366;-59
2020/12/13 03:13:51;;;;;;;;;9.75;6.75;;;;;2.00;89.80;100427.34;3725841;38;20358;-59
2020/12/13 03:16:18;;;;;;;;;6.25;5.00;;;;;1.97;89.99;100423.13;3725659;38;20387;-57
2020/12/13 03:18:44;;;;;;;;;9.50;6.25;;;;;1.99;90.17;100420.31;3725622;37;20367;-59
2020/12/13 03:21:11;;;;;;;;;10.00;7.00;;;;;2.03;89.82;100421.75;3725760;37;20363;-59
2020/12/13 03:23:37;;;;;;;;;10.00;8.00;;;;;2.09;90.23;100423.00;3725651;38;20374;-60
2020/12/13 03:26:04;;;;;;;;;9.50;9.00;;;;;2.07;89.68;100425.84;3725623;37;20475;-59
2020/12/13 03:28:30;;;;;;;;;10.25;9.75;;;;;2.07;90.08;100417.00;3725608;38;20385;-59
2020/12/13 03:30:56;;;;;;;;;10.75;10.00;;;;;2.10;89.77;100417.53;3725567;37;20378;-59
2020/12/13 03:33:22;;;;;;;;;11.50;10.25;;;;;2.15;90.06;100425.16;3725660;38;20399;-59
2020/12/13 03:35:49;;;;;;;;;11.00;10.25;;;;;2.13;89.78;100427.97;3725625;38;20401;-59
2020/12/13 03:38:15;;;;;;;;;11.00;9.75;;;;;2.16;90.20;100429.50;3725542;38;20397;-58
2020/12/13 03:40:42;;;;;;;;;10.50;9.00;;;;;2.07;89.77;100428.50;3725410;38;20387;-59
2020/12/13 03:43:09;;;;;;;;;10.25;9.50;;;;;2.12;90.09;100426.25;3725617;38;20357;-57
2020/12/13 03:45:35;;;;;;;;;8.25;7.75;;;;;2.14;89.87;100429.66;3725061;37;20378;-58
2020/12/13 03:48:01;;;;;;;;;11.00;7.75;;;;;2.19;90.20;100435.44;3725507;38;20503;-59
2020/12/13 03:50:38;;;;;;;;;9.50;9.50;;;;;2.18;89.67;100438.25;3725563;38;20367;-59
2020/12/13 03:53:11;;;;;;;;;8.75;8.00;;;;;2.18;89.75;100432.91;3725469;37;20371;-59
2020/12/13 03:55:40;;;;;;;;;10.50;9.25;;;;;2.23;89.88;100431.53;3725667;37;20321;-58
2020/12/13 03:58:08;;;;;;;;;10.33;8.00;;;;;2.31;90.36;100437.03;3725773;38;20329;-58
2020/12/13 04:00:35;;;;;;;;;9.75;8.75;;;;;2.31;89.89;100431.72;3725539;38;20302;-58
2020/12/13 04:03:05;;;;;;;;;10.75;10.75;;;;;2.27;89.92;100442.78;3725531;38;20297;-58
2020/12/13 04:05:33;;;;;;;;;10.00;7.00;;;;;2.17;89.94;100440.06;3725570;38;20302;-58
2020/12/13 04:07:59;;;;;;;;;9.75;7.25;;;;;2.18;89.62;100448.91;3725704;37;20287;-58
2020/12/13 04:10:26;;;;;;;;;12.00;10.00;;;;;2.17;89.84;100452.56;3725633;38;20281;-57
2020/12/13 04:12:53;;;;;;;;;8.00;8.00;;;;;2.15;90.07;100452.69;3725740;37;20356;-58
2020/12/13 04:15:19;;;;;;;;;10.00;8.75;;;;;1.77;89.75;100418.62;3725626;37;20335;-58
2020/12/13 04:17:49;;;;;;;;;8.50;7.50;;;;;2.01;90.09;100457.56;3725546;37;20324;-59
2020/12/13 04:20:15;;;;;;;;;14.50;11.50;;;;;2.00;89.90;100462.03;3725247;37;20311;-59
2020/12/13 04:22:43;;;;;;;;;11.50;10.00;;;;;1.88;89.80;100439.91;3725487;38;20345;-58
2020/12/13 04:25:10;;;;;;;;;9.75;7.50;;;;;2.02;90.09;100460.09;3725265;37;20329;-58
2020/12/13 04:27:36;;;;;;;;;10.25;7.00;;;;;1.97;90.03;100457.81;3725262;38;20276;-60
2020/12/13 04:30:06;;;;;;;;;10.00;8.00;;;;;1.95;89.90;100464.25;3725241;38;20278;-59
2020/12/13 04:32:35;;;;;;;;;10.50;9.75;;;;;1.97;90.13;100472.97;3727713;38;20278;-58
2020/12/13 04:35:02;;;;;;;;;7.50;7.50;;;;;1.94;90.19;100466.09;3730945;38;20298;-59
2020/12/13 04:37:28;;;;;;;;;8.00;8.00;;;;;1.96;90.03;100465.94;3728880;37;20269;-59
2020/12/13 04:39:54;;;;;;;;;11.50;9.00;;;;;2.02;90.26;100465.44;3725678;37;20243;-60
2020/12/13 04:42:24;;;;;;;;;7.00;6.25;;;;;2.06;90.18;100466.03;3727342;38;20341;-59
2020/12/13 04:44:52;;;;;;;;;8.00;6.50;;;;;2.15;90.19;100470.53;3727845;37;17871;-59
2020/12/13 04:47:27;;;;;;;;;9.00;7.25;;;;;2.18;90.32;100467.59;3727182;37;20256;-58
2020/12/13 04:49:55;;;;;;;;;10.50;10.50;;;;;2.12;89.86;100477.00;3726891;38;20255;-58
2020/12/13 04:52:24;;;;;;;;;14.50;11.25;;;;;1.93;89.88;100458.22;3725431;37;20304;-61
2020/12/13 04:54:51;;;;;;;;;8.25;8.00;;;;;1.96;89.93;100473.97;3725552;37;20273;-59
2020/12/13 04:57:19;;;;;;;;;9.00;7.00;;;;;1.93;90.09;100471.56;3725761;37;20230;-59
2020/12/13 04:59:49;;;;;;;;;7.75;7.75;;;;;1.90;90.05;100456.66;3725546;37;20240;-59
2020/12/13 05:02:17;;;;;;;;;9.50;7.75;;;;;1.97;90.12;100463.16;3725720;38;20264;-59
2020/12/13 05:04:45;;;;;;;;;12.00;10.25;;;;;2.06;90.08;100472.19;3725639;37;20233;-59
2020/12/13 05:07:12;;;;;;;;;10.00;7.50;;;;;2.08;90.25;100480.91;3725152;38;20247;-59
2020/12/13 05:09:40;;;;;;;;;10.75;7.50;;;;;2.00;90.35;100475.41;3728712;37;20241;-59
2020/12/13 05:12:08;;;;;;;;;10.00;9.50;;;;;2.09;89.97;100471.06;3730829;37;20261;-59
2020/12/13 05:14:34;;;;;;;;;7.50;6.50;;;;;2.14;90.19;100469.69;3726587;37;20231;-60
2020/12/13 05:17:09;;;;;;;;;9.00;7.75;;;;;2.10;90.28;100467.41;3726383;37;20217;-59
2020/12/13 05:19:38;;;;;;;;;7.75;7.75;;;;;2.02;90.16;100460.09;3728926;37;20195;-59
2020/12/13 05:22:06;;;;;;;;;11.50;10.00;;;;;2.00;90.24;100470.06;3729004;38;20196;-60
2020/12/13 05:24:36;;;;;;;;;7.75;6.50;;;;;2.02;90.28;100476.09;3725218;38;20267;-60
2020/12/13 05:27:05;;;;;;;;;10.50;8.25;;;;;2.07;90.36;100479.22;3725293;37;20209;-58
2020/12/13 05:29:34;;;;;;;;;10.00;10.00;;;;;2.11;90.16;100479.78;3725376;38;20213;-58
2020/12/13 05:32:19;;;;;;;;;11.00;8.75;;;;;2.09;90.03;100484.41;3725489;38;20233;-58
2020/12/13 05:34:48;;;;;;;;;10.75;10.00;;;;;1.99;90.16;100477.22;3725982;37;20213;-58
2020/12/13 05:37:17;;;;;;;;;12.75;8.00;;;;;2.08;90.54;100483.56;3725589;37;20208;-58
2020/12/13 05:39:51;;;;;;;;;10.75;10.00;;;;;2.00;90.00;100467.37;3725382;38;20190;-58
2020/12/13 05:42:39;;;;;;;;;11.25;8.75;;;;;2.03;90.47;100471.63;3725639;38;20201;-58
2020/12/13 05:45:18;;;;;;;;;10.75;10.00;;;;;1.99;90.21;100471.03;3725474;38;20187;-58
2020/12/13 05:53:24;;;;;;;;;11.00;10.00;;;;;2.05;90.33;100465.16;3725803;37;20154;-59
2020/12/13 05:55:53;;;;;;;;;7.00;6.50;;;;;2.08;90.57;100474.75;3725689;37;20200;-59
2020/12/13 05:58:26;;;;;;;;;10.50;7.50;;;;;2.09;90.47;100477.25;3726221;38;20163;-58
2020/12/13 06:00:54;;;;;;;;;9.00;8.25;;;;;2.11;90.50;100485.13;3726333;37;20150;-59
2020/12/13 06:03:49;;;;;;;;;9.00;7.00;;;;;2.13;90.14;100494.69;3728876;37;20172;-57
2020/12/13 06:06:21;;;;;;;;;10.25;10.25;;;;;2.13;90.27;100494.69;3726362;37;20136;-59
2020/12/13 06:09:10;;;;;;;;;10.00;8.00;;;;;2.17;90.55;100500.63;3728756;38;20181;-58
2020/12/13 06:11:59;;;;;;;;;10.75;9.50;;;;;2.23;90.37;100497.44;3730747;37;20187;-58
2020/12/13 06:14:25;;;;;;;;;10.25;8.50;;;;;2.32;90.23;100494.81;3725495;38;20150;-59
2020/12/13 06:17:01;;;;;;;;;11.75;11.50;;;;;2.34;90.30;100492.00;3725763;38;20132;-59
2020/12/13 06:19:30;;;;;;;;;14.25;11.00;;;;;2.45;90.74;100496.44;3725154;37;20159;-58
2020/12/13 06:21:57;;;;;;;;;13.00;12.50;;;;;2.51;90.37;100501.25;3725708;37;20142;-58
2020/12/13 06:24:25;;;;;;;;;13.00;11.00;;;;;2.55;90.47;100498.16;3726227;37;20176;-58
2020/12/13 06:27:02;;;;;;;;;10.00;8.75;;;;;2.44;90.03;100502.75;3725305;38;20141;-59
2020/12/13 06:29:30;;;;;;;;;10.50;7.75;;;;;2.33;90.10;100501.84;3726559;37;20184;-60
2020/12/13 06:32:00;;;;;;;;;9.50;7.00;;;;;2.38;90.34;100506.78;3725794;38;20131;-58
2020/12/13 06:34:30;;;;;;;;;7.00;7.00;;;;;2.39;90.12;100499.62;3725773;38;20097;-59
2020/12/13 06:36:58;;;;;;;;;12.50;9.25;;;;;2.44;90.06;100506.28;3725508;38;20115;-59
2020/12/13 06:39:27;;;;;;;;;12.00;11.00;;;;;2.41;90.01;100503.00;3725266;38;20159;-58
2020/12/13 06:41:53;;;;;;;;;7.00;6.00;;;;;2.37;90.16;100506.94;3725699;37;20141;-58
2020/12/13 06:44:21;;;;;;;;;15.25;11.75;;;;;2.32;90.11;100508.16;3725583;37;20079;-58
2020/12/13 06:46:48;;;;;;;;;11.00;10.00;;;;;2.30;90.07;100510.12;3725232;37;20141;-59
2020/12/13 06:49:19;;;;;;;;;11.75;9.00;;;;;2.31;90.42;100503.81;3725695;38;20151;-58
2020/12/13 06:51:48;;;;;;;;;12.25;9.50;;;;;2.37;90.25;100506.94;3725321;38;20136;-58
2020/12/13 06:54:19;;;;;;;;;13.25;10.50;;;;;2.45;90.44;100513.31;3725561;38;20091;-59
2020/12/13 06:56:48;;;;;;;;;13.50;11.50;;;;;2.51;90.41;100525.28;3725382;37;20116;-59
2020/12/13 06:59:21;;;;;;;;;11.75;10.75;;;;;2.57;90.15;100520.25;3725241;38;20113;-59
2020/12/13 07:01:47;;;;;;;;;11.25;10.25;;;;;2.49;90.21;100522.75;3725333;38;20114;-59
2020/12/13 07:04:46;;;;;;;;;12.25;10.50;;;;;2.46;90.30;100506.13;3725605;38;20102;-59
2020/12/13 07:07:25;;;;;;;;;12.50;11.50;;;;;2.53;90.05;100512.66;3725836;38;20105;-58
2020/12/13 07:09:52;;;;;;;;;14.50;12.50;;;;;2.45;90.23;100512.47;3725736;37;20139;-58
2020/12/13 07:12:18;;;;;;;;;16.00;12.75;;;;;2.53;90.14;100515.31;3725318;37;20094;-58
2020/12/13 07:14:46;;;;;;;;;14.25;12.75;;;;;2.55;90.42;100500.84;3725474;37;20139;-59
2020/12/13 07:17:19;;;;;;;;;19.00;15.75;;;;;2.70;90.29;100525.34;3725548;37;20079;-57
2020/12/13 07:19:46;;;;;;;;;17.50;14.75;;;;;2.53;90.16;100507.31;3725558;37;20089;-59
2020/12/13 07:22:23;;;;;;;;;17.50;15.75;;;;;2.57;90.35;100508.72;3725633;38;20087;-59
2020/12/13 07:24:56;;;;;;;;;12.00;12.00;;;;;2.56;90.31;100512.38;3725548;38;20098;-59
2020/12/13 07:27:25;;;;;;;;;19.25;13.25;;;;;2.58;90.12;100516.59;3725672;37;20103;-59
2020/12/13 08:20:24;;;;;;;;;17.25;16.00;;;;;2.79;90.00;100559.28;3725751;37;20638;-60
2020/12/13 08:22:52;;;;;;;;;12.25;12.25;;;;;2.75;90.10;100570.38;3725141;37;20659;-61
2020/12/13 08:25:22;;;;;;;;;16.25;15.00;;;;;2.72;90.20;100560.81;3725656;37;20625;-59
2020/12/13 08:27:51;;;;;;;;;15.00;11.25;;;;;2.74;90.32;100547.31;3725867;37;20632;-60
2020/12/13 08:30:18;;;;;;;;;12.75;11.25;;;;;2.84;90.33;100558.87;3725807;38;20599;-60
2020/12/13 08:32:45;;;;;;;;;13.25;13.00;;;;;2.89;90.32;100554.84;3725897;38;20628;-59
2020/12/13 08:35:19;;;;;;;;;18.00;16.00;;;;;2.89;90.13;100554.00;3725795;38;20622;-60
2020/12/13 08:38:00;;;;;;;;;16.75;14.00;;;;;2.85;90.33;100549.91;3725343;37;20598;-59
2020/12/13 08:40:40;;;;;;;;;17.50;15.25;;;;;2.91;90.43;100555.56;3726046;38;20615;-59
2020/12/13 08:43:20;;;;;;;;;14.25;14.25;;;;;2.95;90.12;100548.97;3725839;37;20622;-58
2020/12/13 08:45:54;;;;;;;;;13.50;12.00;;;;;3.04;90.41;100549.97;3725763;37;20589;-59
2020/12/13 08:48:27;;;;;;;;;21.00;16.50;;;;;3.15;90.37;100551.66;3725565;37;20589;-58
2020/12/13 08:51:10;;;;;;;;;17.25;16.25;;;;;3.21;89.99;100546.63;3725095;37;20611;-58
2020/12/13 08:53:38;;;;;;;;;7.75;7.75;;;;;3.13;89.85;100543.78;3725620;38;20611;-59
2020/12/13 08:56:14;;;;;;;;;17.50;16.00;;;;;3.13;89.87;100550.97;3725813;37;20531;-59
2020/12/13 08:58:51;;;;;;;;;10.50;9.25;;;;;3.04;89.91;100525.06;3725341;37;20565;-60
2020/12/13 09:01:20;;;;;;;;;17.00;15.75;;;;;3.11;90.08;100531.56;3725692;38;20561;-60
2020/12/13 09:03:46;;;;;;;;;26.75;22.50;;;;;3.22;90.23;100544.78;3726269;37;20585;-60
2020/12/13 09:06:31;;;;;;;;;30.25;26.50;;;;;3.20;90.30;100536.06;3725894;37;20628;-59
2020/12/13 09:09:16;;;;;;;;;29.00;23.50;;;;;3.33;90.30;100537.50;3725940;38;20564;-59
2020/12/13 09:11:42;;;;;;;;;42.50;37.75;;;;;3.38;90.28;100530.91;3725912;37;20592;-59
2020/12/13 09:14:09;;;;;;;;;36.00;32.25;;;;;3.39;90.19;100527.25;3725967;38;20586;-60
2020/12/13 09:16:36;;;;;;;;;21.50;19.25;;;;;3.46;90.03;100539.09;3725780;38;20551;-60
2020/12/13 09:19:10;;;;;;;;;18.75;17.00;;;;;3.50;90.16;100543.19;3725859;37;20564;-59
2020/12/13 09:21:47;;;;;;;;;17.00;15.25;;;;;3.47;89.92;100540.78;3725677;38;20551;-60
2020/12/13 09:24:16;;;;;;;;;20.75;17.75;;;;;3.47;90.25;100538.09;3725766;38;20557;-60
2020/12/13 09:26:59;;;;;;;;;22.50;20.00;;;;;3.61;90.53;100537.69;3725800;38;20879;-60
2020/12/13 09:29:27;;;;;;;;;21.00;18.00;;;;;3.60;89.65;100544.03;3725449;38;20552;-60
2020/12/13 09:31:54;;;;;;;;;17.25;15.50;;;;;3.56;89.86;100539.94;3725798;37;20525;-60
2020/12/13 09:34:22;;;;;;;;;18.00;17.00;;;;;3.57;89.74;100531.78;3725429;38;20539;-60
2020/12/13 09:36:49;;;;;;;;;18.50;17.00;;;;;3.59;89.84;100528.97;3725652;38;20535;-59
2020/12/13 09:39:16;;;;;;;;;26.00;22.25;;;;;3.59;89.61;100534.31;3725569;38;20568;-59
2020/12/13 09:41:42;;;;;;;;;21.00;21.00;;;;;3.50;89.68;100527.97;3725888;37;20612;-60
2020/12/13 09:44:09;;;;;;;;;46.50;39.75;;;;;3.63;90.04;100536.59;3725511;37;20545;-60
2020/12/13 09:46:35;;;;;;;;;30.75;26.75;;;;;3.79;90.15;100541.34;3725760;37;20596;-61
2020/12/13 09:49:03;;;;;;;;;35.25;30.00;;;;;3.80;89.66;100537.69;3725727;38;20529;-61
2020/12/13 09:51:37;;;;;;;;;29.50;25.25;;;;;3.83;89.84;100544.59;3725670;37;20537;-62
2020/12/13 09:54:04;;;;;;;;;28.75;22.25;;;;;3.85;89.87;100539.94;3725344;37;20518;-62
2020/12/13 09:56:30;;;;;;;;;31.00;27.50;;;;;3.91;89.89;100531.34;3725350;37;20521;-62
2020/12/13 09:58:56;;;;;;;;;27.75;22.00;;;;;3.92;89.98;100525.84;3726017;38;20513;-62
2020/12/13 10:01:22;;;;;;;;;32.75;24.00;;;;;3.96;89.67;100529.94;3725725;38;20514;-62
2020/12/13 10:03:52;;;;;;;;;26.25;22.50;;;;;3.96;89.99;100513.03;3725773;38;20909;-67
2020/12/13 10:06:33;;;;;;;;;25.00;24.50;;;;;4.05;89.82;100522.91;3725602;38;20491;-64
2020/12/13 10:09:10;;;;;;;;;24.50;23.75;;;;;3.94;89.58;100518.53;3725845;37;20530;-63
2020/12/13 10:11:38;;;;;;;;;27.75;25.25;;;;;3.82;89.65;100524.16;3725729;37;20483;-62
2020/12/13 10:14:11;;;;;;;;;21.75;18.75;;;;;3.77;89.41;100511.19;3725869;37;20509;-62
2020/12/13 10:16:46;;;;;;;;;20.00;19.00;;;;;3.80;89.95;100515.44;3725437;37;20505;-66
2020/12/13 10:19:12;;;;;;;;;25.75;24.25;;;;;3.87;90.00;100519.22;3726875;37;20512;-62
2020/12/13 10:21:38;;;;;;;;;26.00;20.25;;;;;3.82;89.65;100519.66;3726451;37;20896;-62
2020/12/13 10:24:06;;;;;;;;;18.25;15.75;;;;;3.83;89.66;100524.03;3726347;37;20499;-61
2020/12/13 10:26:39;;;;;;;;;19.75;17.00;;;;;3.92;89.72;100525.84;3726066;38;20466;-61
2020/12/13 10:29:06;;;;;;;;;44.75;33.50;;;;;3.93;89.74;100519.50;3725461;38;20483;-61
2020/12/13 10:31:46;;;;;;;;;32.00;27.75;;;;;3.93;89.50;100516.84;3726007;38;20502;-62
2020/12/13 10:34:14;;;;;;;;;27.75;23.00;;;;;3.93;89.88;100514.16;3725900;38;20516;-62
2020/12/13 10:36:41;;;;;;;;;30.00;25.00;;;;;4.01;89.80;100521.50;3725831;38;20454;-61
2020/12/13 10:39:10;;;;;;;;;21.25;18.50;;;;;4.01;89.51;100513.44;3725658;37;20483;-62
2020/12/13 10:41:38;;;;;;;;;18.50;17.50;;;;;4.01;89.50;100510.78;3725490;38;20458;-61
2020/12/13 10:44:05;;;;;;;;;20.00;17.50;;;;;3.94;89.61;100523.88;3725837;38;20862;-62
2020/12/13 10:46:31;;;;;;;;;24.00;18.00;;;;;3.88;89.48;100520.94;3725863;38;20454;-61
2020/12/13 10:48:58;;;;;;;;;24.75;22.00;;;;;3.87;89.78;100513.88;3725400;38;20454;-61
2020/12/13 10:51:25;;;;;;;;;22.75;22.25;;;;;3.92;89.79;100519.66;3726012;37;20459;-62
2020/12/13 10:53:51;;;;;;;;;24.00;23.75;;;;;3.94;89.47;100521.22;3725962;37;20456;-62
2020/12/13 10:56:17;;;;;;;;;20.75;20.00;;;;;3.97;89.89;100512.03;3725638;37;20451;-61
2020/12/13 10:58:46;;;;;;;;;30.50;28.50;;;;;3.96;89.47;100513.03;3725860;38;20417;-62
2020/12/13 11:01:13;;;;;;;;;34.50;29.25;;;;;3.96;89.77;100518.37;3725748;37;20422;-61
2020/12/13 11:03:40;;;;;;;;;27.25;23.75;;;;;3.93;89.43;100516.84;3725965;38;20447;-62
2020/12/13 11:06:15;;;;;;;;;22.75;19.50;;;;;3.89;89.76;100519.94;3726035;37;20440;-62
2020/12/13 11:08:42;;;;;;;;;28.75;23.00;;;;;3.91;89.58;100526.84;3725979;37;20413;-62
2020/12/13 11:11:08;;;;;;;;;35.25;28.75;;;;;3.95;89.72;100524.72;3725765;37;20405;-61
2020/12/13 11:13:34;;;;;;;;;31.00;26.75;;;;;3.94;89.79;100526.56;3726035;37;20415;-62
2020/12/13 11:16:01;;;;;;;;;37.25;30.00;;;;;4.00;89.59;100527.81;3725889;37;20466;-62
2020/12/13 11:18:34;;;;;;;;;27.25;24.25;;;;;4.01;89.86;100524.16;3725954;37;20424;-62
2020/12/13 11:21:01;;;;;;;;;28.00;23.00;;;;;3.98;89.46;100532.47;3726196;37;20408;-62
2020/12/13 11:23:28;;;;;;;;;18.50;18.00;;;;;4.00;89.87;100527.81;3725932;37;20428;-61
2020/12/13 11:25:55;;;;;;;;;21.00;19.50;;;;;3.98;89.80;100524.44;3725771;37;20402;-63
2020/12/13 11:28:21;;;;;;;;;20.50;18.75;;;;;4.02;89.96;100520.50;3725887;37;20416;-62
2020/12/13 11:30:47;;;;;;;;;28.50;25.50;;;;;4.00;89.66;100522.47;3725824;38;20413;-59
2020/12/13 11:33:13;;;;;;;;;25.00;23.25;;;;;4.05;89.80;100520.22;3725927;37;20384;-62
2020/12/13 11:35:40;;;;;;;;;50.00;42.00;;;;;4.08;89.85;100527.97;3725997;37;20392;-62
2020/12/13 11:38:07;;;;;;;;;38.25;30.50;;;;;4.12;89.75;100526.69;3726039;38;20456;-62
2020/12/13 11:40:33;;;;;;;;;57.75;41.50;;;;;3.89;89.51;100494.00;3725922;38;20447;-61
2020/12/13 11:43:00;;;;;;;;;51.75;44.00;;;;;4.08;89.51;100519.09;3726162;37;20449;-62
2020/12/13 11:45:26;;;;;;;;;37.50;34.75;;;;;4.02;89.43;100525.84;3725604;38;20422;-61
2020/12/13 11:47:53;;;;;;;;;26.50;21.75;;;;;3.94;89.74;100513.19;3726156;37;20429;-61
2020/12/13 11:50:20;;;;;;;;;34.25;30.50;;;;;3.95;89.73;100522.91;3725928;38;20368;-62
2020/12/13 11:52:46;;;;;;;;;49.25;40.00;;;;;4.01;89.66;100531.34;3725900;37;20369;-61
2020/12/13 11:55:14;;;;;;;;;60.50;47.75;;;;;4.05;89.59;100536.28;3725779;37;20400;-61
2020/12/13 11:57:40;;;;;;;;;57.50;45.50;;;;;4.10;89.60;100538.53;3725745;38;20407;-60
2020/12/13 12:00:06;;;;;;;;;41.50;36.00;;;;;4.12;89.68;100539.25;3725644;38;20417;-61
2020/12/13 12:02:32;;;;;;;;;44.00;38.25;;;;;4.13;89.62;100536.41;3726333;37;20489;-60
2020/12/13 12:04:59;;;;;;;;;49.25;41.00;;;;;4.20;89.75;100537.50;3727740;38;20418;-60
2020/12/13 12:07:25;;;;;;;;;31.50;29.75;;;;;4.16;89.66;100535.28;3726263;37;20414;-61
2020/12/13 12:09:51;;;;;;;;;30.75;29.00;;;;;4.17;89.68;100531.59;3729071;37;20321;-60
2020/12/13 12:12:17;;;;;;;;;31.25;24.00;;;;;4.17;89.88;100535.13;3729796;37;20331;-61
2020/12/13 12:14:43;;;;;;;;;57.50;48.00;;;;;4.19;89.77;100548.38;3726684;37;20331;-61
2020/12/13 12:17:10;;;;;;;;;22.50;19.00;;;;;4.16;89.67;100544.12;3725878;38;20374;-61
2020/12/13 12:19:38;;;;;;;;;37.50;36.00;;;;;4.19;89.68;100554.56;3725679;38;20654;-60
2020/12/13 12:22:04;;;;;;;;;42.25;36.25;;;;;4.21;89.97;100549.91;3725755;37;20337;-60
2020/12/13 12:24:32;;;;;;;;;46.75;37.00;;;;;4.25;89.51;100542.44;3725888;37;20333;-61
2020/12/13 12:27:00;;;;;;;;;31.75;28.75;;;;;4.21;89.64;100536.53;3725835;38;20438;-60
2020/12/13 12:29:26;;;;;;;;;30.75;26.00;;;;;4.17;89.67;100545.84;3725555;37;20318;-61
2020/12/13 12:31:52;;;;;;;;;28.75;21.25;;;;;4.12;89.45;100542.75;3725893;38;20367;-61